Cape Newenham, Alaska
Current Conditions -  °F | °C
As of 12:49 PM on Thursday 27 Nov 2014 (Local Time) from PAEH Reporting Station
Light Rain Light Rain  
Wind Chill: 32°   Ceiling: 700
Heat Index: 39°   Visibility: 8mi
Dew Point: 36°   Wind: 12mph
Humidity: 87%   Direction: 140°SE
Pressure: 29.96"   Gusts: 35mph
Location:  58.65°N, 162.06°W
Report Text: PAEH 272149Z AUTO 14010G30KT 110V180 8SM -RA OVC007 04/02 A2996 RMK AO2 SLP153
Loading
Personal Weather Stations






























Interactive Weather Map New forecast layout! Learn more

10-Day Weather Forecast

Advertisements
Track Severe Weather on mobile